createdAt,value
2022-08-18T00:00:24.417Z,115.43
2022-08-18T00:03:20.250Z,119.97
2022-08-18T00:06:06.349Z,120.25
2022-08-18T00:09:11.736Z,134.13
2022-08-18T00:12:16.174Z,126.13
2022-08-18T00:15:28.563Z,112.15
2022-08-18T00:25:55.253Z,120.22
2022-08-18T00:49:25.773Z,148.07
2022-08-18T01:11:17.997Z,87.50
2022-08-18T01:18:11.996Z,116.22
2022-08-18T01:22:04.534Z,133.70
2022-08-18T01:28:48.261Z,126.07
2022-08-18T01:31:54.465Z,121.28
2022-08-18T01:35:02.288Z,111.97
2022-08-18T01:37:56.456Z,105.13
2022-08-18T01:41:22.075Z,118.15
2022-08-18T01:43:31.193Z,136.48
2022-08-18T01:46:02.876Z,155.98
2022-08-18T01:48:39.165Z,168.63
2022-08-18T01:51:10.182Z,168.30
2022-08-18T01:53:39.786Z,179.27
2022-08-18T01:56:10.751Z,179.15
2022-08-18T01:58:47.462Z,178.68
2022-08-18T02:01:15.711Z,170.60
2022-08-18T02:03:51.590Z,165.93
2022-08-18T02:06:32.389Z,157.52
2022-08-18T02:09:02.972Z,150.15
2022-08-18T02:11:35.072Z,151.13
2022-08-18T02:14:02.266Z,158.32
2022-08-18T02:16:33.433Z,149.10
2022-08-18T02:19:00.733Z,146.93
2022-08-18T02:21:27.989Z,151.80
2022-08-18T02:23:55.279Z,152.93
2022-08-18T02:26:23.482Z,151.90
2022-08-18T02:28:51.677Z,153.52
2022-08-18T02:31:21.649Z,147.20
2022-08-18T02:33:52.204Z,156.35
2022-08-18T02:36:21.322Z,167.23
2022-08-18T02:38:56.695Z,189.85
2022-08-18T02:41:29.443Z,264.50
2022-08-18T02:43:58.334Z,272.17
2022-08-18T02:46:30.157Z,236.00
2022-08-18T02:48:59.935Z,275.50
2022-08-18T02:51:27.154Z,260.42
2022-08-18T02:53:54.985Z,372.95
2022-08-18T02:56:39.883Z,329.25
2022-08-18T02:59:14.872Z,308.52
2022-08-18T03:01:45.756Z,238.70
2022-08-18T03:04:16.076Z,268.95
2022-08-18T03:06:45.491Z,261.98
2022-08-18T03:09:15.172Z,261.42
2022-08-18T03:11:43.602Z,261.67
2022-08-18T03:14:11.900Z,273.65
2022-08-18T03:16:53.397Z,261.23
2022-08-18T03:19:29.408Z,262.70
2022-08-18T03:22:03.038Z,271.05
2022-08-18T03:24:31.853Z,250.00
2022-08-18T03:27:01.522Z,310.05
2022-08-18T03:29:32.295Z,244.27
2022-08-18T03:32:06.623Z,258.55
2022-08-18T03:34:34.521Z,296.20
2022-08-18T03:37:01.854Z,214.52
2022-08-18T03:39:29.308Z,200.90
2022-08-18T03:42:01.170Z,169.75
2022-08-18T03:44:36.468Z,161.82
2022-08-18T03:47:07.246Z,168.48
2022-08-18T03:49:34.861Z,161.43
2022-08-18T03:52:02.280Z,153.80
2022-08-18T03:54:32.002Z,233.55
2022-08-18T03:57:00.144Z,170.27
2022-08-18T03:59:28.084Z,171.63
2022-08-18T04:01:55.830Z,192.20
2022-08-18T04:04:26.249Z,176.98
2022-08-18T04:06:58.314Z,173.85
2022-08-18T04:09:28.090Z,146.63
2022-08-18T04:11:55.775Z,139.68
2022-08-18T04:14:25.267Z,144.43
2022-08-18T04:16:53.066Z,142.02
2022-08-18T04:19:26.221Z,140.65
2022-08-18T04:21:57.096Z,156.27
2022-08-18T04:24:25.967Z,167.30
2022-08-18T04:26:53.647Z,175.35
2022-08-18T04:29:21.639Z,173.13
2022-08-18T04:31:51.463Z,171.20
2022-08-18T04:34:20.466Z,165.60
2022-08-18T04:36:48.276Z,174.30
2022-08-18T04:39:15.594Z,146.40
2022-08-18T04:41:44.222Z,146.65
2022-08-18T04:44:12.517Z,145.88
2022-08-18T04:46:42.560Z,147.07
2022-08-18T04:49:11.255Z,135.98
2022-08-18T04:52:30.984Z,145.77
2022-08-18T04:54:31.472Z,138.93
2022-08-18T04:56:58.735Z,141.68
2022-08-18T04:59:25.947Z,143.13
2022-08-18T05:01:53.120Z,128.40
2022-08-18T05:04:20.293Z,129.05
2022-08-18T05:06:47.465Z,126.18
2022-08-18T05:09:16.899Z,119.15
2022-08-18T05:11:50.891Z,115.47
2022-08-18T05:14:18.995Z,112.38
2022-08-18T05:16:48.807Z,113.13
2022-08-18T05:19:23.206Z,103.68
2022-08-18T05:21:51.464Z,106.22
2022-08-18T05:24:21.488Z,97.13
2022-08-18T05:26:49.219Z,94.47
2022-08-18T05:29:18.506Z,100.47
2022-08-18T05:31:49.170Z,88.90
2022-08-18T05:34:17.742Z,84.82
2022-08-18T05:36:58.331Z,87.53
2022-08-18T05:39:33.208Z,87.32
2022-08-18T05:42:13.001Z,85.65
2022-08-18T05:44:44.298Z,79.07
2022-08-18T05:47:27.668Z,92.63
2022-08-18T05:49:57.037Z,86.97
2022-08-18T05:52:27.340Z,86.60
2022-08-18T05:55:23.020Z,87.45
2022-08-18T05:57:55.819Z,427.60
2022-08-18T06:00:24.186Z,142.70
2022-08-18T06:03:05.864Z,97.20
2022-08-18T06:05:38.202Z,110.70
2022-08-18T06:08:12.427Z,128.63
2022-08-18T06:10:44.496Z,297.83
2022-08-18T06:13:12.081Z,180.70
2022-08-18T06:16:13.145Z,1708.85
2022-08-18T06:19:01.303Z,608.45
2022-08-18T06:21:44.376Z,426.75
2022-08-18T06:24:33.572Z,251.32
2022-08-18T06:27:10.607Z,360.70
2022-08-18T06:30:08.387Z,372.17
2022-08-18T06:33:01.082Z,297.25
2022-08-18T06:35:38.864Z,376.75
2022-08-18T06:38:36.733Z,355.55
2022-08-18T06:41:42.853Z,373.27
2022-08-18T06:52:56.871Z,844.00
2022-08-18T06:55:39.688Z,1142.72
2022-08-18T06:58:25.097Z,1146.93
2022-08-18T07:00:54.961Z,1152.47
2022-08-18T07:03:41.248Z,1039.82
2022-08-18T07:06:11.449Z,1054.10
2022-08-18T07:08:43.626Z,1088.70
2022-08-18T07:11:27.372Z,1254.93
2022-08-18T07:14:16.668Z,1466.38
2022-08-18T07:16:58.434Z,1550.50
2022-08-18T07:19:32.899Z,1651.35
2022-08-18T07:22:20.486Z,1812.80
2022-08-18T07:25:05.468Z,1955.63
2022-08-18T07:27:44.466Z,1824.57
2022-08-18T07:30:15.760Z,1855.05
2022-08-18T07:32:47.498Z,1931.15
2022-08-18T07:35:20.507Z,1920.78
2022-08-18T07:38:00.588Z,1896.40
2022-08-18T07:40:52.427Z,1904.28
2022-08-18T07:43:35.953Z,1874.90
2022-08-18T07:46:19.600Z,1779.85
2022-08-18T07:48:46.907Z,1514.05
2022-08-18T07:51:32.584Z,1689.60
2022-08-18T07:54:47.260Z,1609.85
2022-08-18T07:57:28.589Z,1646.68
2022-08-18T08:00:10.438Z,1678.18
2022-08-18T08:02:52.595Z,1716.45
2022-08-18T08:05:36.125Z,1601.03
2022-08-18T08:08:16.873Z,1744.65
2022-08-18T08:11:14.360Z,1707.30
2022-08-18T08:14:11.795Z,1595.80
2022-08-18T08:16:47.202Z,1340.05
2022-08-18T08:19:42.428Z,1596.85
2022-08-18T08:22:28.164Z,1470.70
2022-08-18T08:25:44.595Z,1177.40
2022-08-18T08:28:21.700Z,1263.85
2022-08-18T08:31:37.660Z,1208.45
2022-08-18T08:34:42.128Z,1999.90
2022-08-18T08:37:15.805Z,1999.90
2022-08-18T08:39:49.748Z,1999.90
2022-08-18T08:42:33.781Z,1999.90
2022-08-18T08:45:08.459Z,1999.90
2022-08-18T08:48:08.402Z,1999.90
2022-08-18T08:50:45.251Z,1999.90
2022-08-18T08:53:17.587Z,1999.90
2022-08-18T08:55:49.334Z,1999.90
2022-08-18T08:58:26.350Z,1999.90
2022-08-18T09:00:55.009Z,1999.90
2022-08-18T09:03:47.408Z,1999.90
2022-08-18T09:06:51.882Z,1999.90
2022-08-18T09:09:45.027Z,1999.90
2022-08-18T09:12:28.451Z,1999.90
2022-08-18T09:15:38.093Z,1999.90
2022-08-18T09:18:30.107Z,1999.90
2022-08-18T09:21:19.525Z,1999.90
2022-08-18T09:23:50.853Z,1999.90
2022-08-18T09:26:45.465Z,1999.90
2022-08-18T09:29:27.169Z,1999.90
2022-08-18T09:32:22.941Z,1999.90
2022-08-18T09:35:14.463Z,1999.90
2022-08-18T09:38:08.298Z,1999.90
2022-08-18T09:41:03.581Z,1999.90
2022-08-18T09:44:21.370Z,1999.90
2022-08-18T09:46:55.938Z,1999.90
2022-08-18T09:49:27.835Z,1999.90
2022-08-18T09:51:59.036Z,1999.90
2022-08-18T09:54:31.919Z,1999.90
2022-08-18T09:57:19.404Z,1999.90
2022-08-18T09:59:47.931Z,1999.90
2022-08-18T10:02:29.511Z,1999.90
2022-08-18T10:05:27.358Z,1999.90
2022-08-18T10:08:14.556Z,1999.90
2022-08-18T10:11:29.707Z,1999.90
2022-08-18T10:14:18.445Z,1999.90
2022-08-18T10:20:27.119Z,1999.90
2022-08-18T10:22:56.451Z,1999.90
2022-08-18T10:25:52.730Z,1999.90
2022-08-18T10:28:52.906Z,1999.90
2022-08-18T10:31:24.113Z,1999.90
2022-08-18T10:33:56.322Z,1999.90
2022-08-18T10:36:36.254Z,1999.90
2022-08-18T10:39:17.304Z,1999.90
2022-08-18T10:41:56.781Z,1999.90
2022-08-18T10:44:29.784Z,1999.90
2022-08-18T10:47:00.940Z,1999.90
2022-08-18T10:49:32.178Z,1999.90
2022-08-18T10:52:35.688Z,1999.90
2022-08-18T10:55:14.524Z,1999.90
2022-08-18T10:58:11.196Z,1999.90
2022-08-18T11:01:00.847Z,1999.90
2022-08-18T11:03:45.544Z,1999.90
2022-08-18T11:06:24.570Z,1999.90
2022-08-18T11:08:57.455Z,1999.90
2022-08-18T11:11:52.805Z,1999.90
2022-08-18T11:14:45.000Z,1999.90
2022-08-18T11:17:36.869Z,1999.90
2022-08-18T11:20:10.912Z,1999.90
2022-08-18T11:22:38.129Z,1999.90
2022-08-18T11:25:28.113Z,1999.90
2022-08-18T11:27:56.787Z,1999.90
2022-08-18T11:30:37.578Z,1999.90
2022-08-18T11:33:07.658Z,1999.90
2022-08-18T11:35:50.609Z,1999.90
2022-08-18T11:38:20.818Z,1999.90
2022-08-18T11:41:13.010Z,1999.90
2022-08-18T11:43:43.184Z,1999.90
2022-08-18T11:46:33.485Z,1999.90
2022-08-18T11:49:45.398Z,1999.90
2022-08-18T11:52:26.373Z,1999.90
2022-08-18T11:55:14.743Z,1999.90
2022-08-18T11:57:59.187Z,1999.90
2022-08-18T12:00:43.126Z,1999.90
2022-08-18T12:03:20.285Z,1999.90
2022-08-18T12:05:56.575Z,1999.90
2022-08-18T12:08:58.837Z,1999.90
2022-08-18T12:11:55.052Z,1999.90
2022-08-18T12:14:31.898Z,1999.90
2022-08-18T12:17:01.980Z,1999.90
2022-08-18T12:19:30.920Z,1999.90
2022-08-18T12:22:05.648Z,1999.90
2022-08-18T12:24:39.478Z,1999.90
2022-08-18T12:27:21.734Z,1999.90
2022-08-18T12:29:52.769Z,1999.90
2022-08-18T12:32:56.146Z,1999.90
2022-08-18T12:35:16.284Z,1999.90
2022-08-18T12:38:13.313Z,1999.90
2022-08-18T12:40:37.119Z,1999.90
2022-08-18T12:43:05.880Z,1999.90
2022-08-18T12:45:33.857Z,1999.90
2022-08-18T12:48:04.076Z,1999.90
2022-08-18T12:50:36.204Z,1999.90
2022-08-18T12:53:07.069Z,1999.90
2022-08-18T12:55:43.705Z,1999.90
2022-08-18T12:58:12.657Z,1999.90
2022-08-18T13:00:41.053Z,1999.90
2022-08-18T13:03:08.904Z,1999.90
2022-08-18T13:05:37.939Z,1999.90
2022-08-18T13:08:09.607Z,1999.90
2022-08-18T13:10:46.691Z,1999.90
2022-08-18T13:13:19.375Z,1999.90
2022-08-18T13:15:58.068Z,1999.90
2022-08-18T13:18:28.512Z,1999.90
2022-08-18T13:21:00.231Z,1999.90
2022-08-18T13:23:28.289Z,1999.90
2022-08-18T13:25:59.373Z,1999.90
2022-08-18T13:28:33.488Z,1999.90
2022-08-18T13:31:05.299Z,1999.90
2022-08-18T13:33:57.140Z,1999.90
2022-08-18T13:36:22.555Z,1999.90
2022-08-18T13:38:52.329Z,1999.90
2022-08-18T13:43:52.436Z,1999.90
2022-08-18T13:46:24.344Z,1999.90
2022-08-18T13:49:03.036Z,1999.90
2022-08-18T13:51:31.170Z,1999.90
2022-08-18T13:54:18.648Z,1999.90
2022-08-18T13:56:51.983Z,1999.90
2022-08-18T13:59:23.195Z,1999.90
2022-08-18T14:01:53.087Z,1999.90
2022-08-18T14:04:22.440Z,1999.90
2022-08-18T14:06:57.304Z,1999.90
2022-08-18T14:09:28.096Z,1999.90
2022-08-18T14:12:07.184Z,1999.90
2022-08-18T14:14:43.645Z,1999.90
2022-08-18T14:17:10.864Z,1999.90
2022-08-18T14:19:56.915Z,1999.90
2022-08-18T14:22:42.643Z,1999.90
2022-08-18T14:25:28.592Z,1999.90
2022-08-18T14:27:57.070Z,1999.90
2022-08-18T14:30:24.535Z,1999.90
2022-08-18T14:32:53.601Z,1999.90
2022-08-18T14:36:04.175Z,1999.90
2022-08-18T14:38:10.357Z,1999.90
2022-08-18T14:40:43.166Z,1999.90
2022-08-18T14:43:14.143Z,1999.90
2022-08-18T14:45:48.670Z,1999.90
2022-08-18T14:48:19.074Z,1999.90
2022-08-18T14:50:50.110Z,1999.90
2022-08-18T14:53:23.755Z,1999.90
2022-08-18T14:55:53.158Z,1999.90
2022-08-18T14:58:21.715Z,1999.90
2022-08-18T15:00:53.616Z,1999.90
2022-08-18T15:03:28.157Z,1999.90
2022-08-18T15:06:00.945Z,1999.90
2022-08-18T15:08:35.584Z,1999.90
2022-08-18T15:11:06.006Z,1999.90
2022-08-18T15:13:41.675Z,1999.90
2022-08-18T15:16:13.418Z,1999.90
2022-08-18T15:18:45.575Z,1999.90
2022-08-18T15:21:35.572Z,1999.90
2022-08-18T15:24:26.158Z,1999.90
2022-08-18T15:26:58.355Z,1999.90
2022-08-18T15:29:34.122Z,1999.90
2022-08-18T15:32:05.575Z,1999.90
2022-08-18T15:34:46.274Z,1999.90
2022-08-18T15:37:19.791Z,1999.90
2022-08-18T15:39:55.489Z,1999.90
2022-08-18T15:42:26.054Z,1999.90
2022-08-18T15:44:54.787Z,1999.90
2022-08-18T15:47:25.061Z,1999.90
2022-08-18T15:49:54.943Z,1999.90
2022-08-18T15:52:25.917Z,1999.90
2022-08-18T15:54:56.995Z,1999.90
2022-08-18T15:57:39.135Z,1999.90
2022-08-18T16:00:12.389Z,1999.90
2022-08-18T16:02:48.361Z,1999.90
2022-08-18T16:05:16.986Z,1999.90
2022-08-18T16:07:47.409Z,1999.90
2022-08-18T16:10:17.645Z,1999.90
2022-08-18T16:12:45.942Z,1999.90
2022-08-18T16:15:21.219Z,1999.90
2022-08-18T16:17:54.605Z,1999.90
2022-08-18T16:20:23.930Z,1999.90
2022-08-18T16:22:52.411Z,1999.90
2022-08-18T16:25:20.045Z,1999.90
2022-08-18T16:27:48.094Z,1999.90
2022-08-18T16:30:19.197Z,1999.90
2022-08-18T16:32:47.530Z,1999.90
2022-08-18T16:35:15.908Z,1999.90
2022-08-18T16:37:44.150Z,1999.90
2022-08-18T16:40:12.151Z,1999.90
2022-08-18T16:42:39.460Z,1999.90
2022-08-18T16:45:08.792Z,1999.90
2022-08-18T16:47:40.480Z,1999.90
2022-08-18T16:50:13.637Z,1999.90
2022-08-18T16:52:41.371Z,1999.90
2022-08-18T16:55:10.780Z,1999.90
2022-08-18T16:58:01.659Z,1999.90
2022-08-18T17:00:54.824Z,1999.90
2022-08-18T17:03:42.755Z,1999.90
2022-08-18T17:06:14.656Z,1999.90
2022-08-18T17:08:43.343Z,1999.90
2022-08-18T17:11:15.715Z,1999.90
2022-08-18T17:13:44.179Z,1999.90
2022-08-18T17:16:12.522Z,1999.90
2022-08-18T17:18:40.530Z,1999.90
2022-08-18T17:21:10.664Z,1999.90
2022-08-18T17:23:38.906Z,1999.90
2022-08-18T17:26:11.219Z,1999.90
2022-08-18T17:28:54.657Z,1999.90
2022-08-18T17:31:24.452Z,1999.90
2022-08-18T17:33:57.193Z,1999.90
2022-08-18T17:36:42.195Z,1999.90
2022-08-18T17:39:25.354Z,1999.90
2022-08-18T17:42:10.937Z,1999.90
2022-08-18T17:44:42.423Z,1999.90
2022-08-18T17:47:45.674Z,1999.90
2022-08-18T17:50:47.872Z,1999.90
2022-08-18T17:53:16.464Z,1999.90
2022-08-18T17:55:50.784Z,1999.90
2022-08-18T17:58:40.692Z,1999.90
2022-08-18T18:01:11.598Z,1999.90
2022-08-18T18:03:45.116Z,1999.90
2022-08-18T18:06:33.665Z,1999.90
2022-08-18T18:09:23.394Z,1999.90
2022-08-18T18:11:55.375Z,1999.90
2022-08-18T18:14:41.870Z,1999.90
2022-08-18T18:17:25.202Z,1999.90
2022-08-18T18:20:15.623Z,1999.90
2022-08-18T18:22:45.556Z,1999.90
2022-08-18T18:25:30.795Z,1999.90
2022-08-18T18:28:24.628Z,1999.90
2022-08-18T18:30:58.661Z,1999.90
2022-08-18T18:33:32.855Z,1999.90
2022-08-18T18:36:02.445Z,1999.90
2022-08-18T18:38:38.010Z,1999.90
2022-08-18T18:41:16.571Z,1999.90
2022-08-18T18:43:48.890Z,1999.90
2022-08-18T18:46:27.178Z,1999.90
2022-08-18T18:49:21.288Z,1999.90
2022-08-18T18:52:25.260Z,1999.90
2022-08-18T18:55:09.230Z,1999.90
2022-08-18T18:58:20.265Z,1999.90
2022-08-18T19:00:57.891Z,1999.90
2022-08-18T19:03:47.623Z,1999.90
2022-08-18T19:06:45.338Z,1999.90
2022-08-18T19:09:27.741Z,1999.90
2022-08-18T19:12:34.959Z,1999.90
2022-08-18T19:15:14.701Z,1999.90
2022-08-18T19:18:05.979Z,1999.90
2022-08-18T19:21:49.292Z,1999.90
2022-08-18T19:23:52.765Z,1999.90
2022-08-18T19:26:34.356Z,1999.90
2022-08-18T19:29:27.577Z,1999.90
2022-08-18T19:35:12.341Z,1999.90
2022-08-18T19:38:05.750Z,1999.90
2022-08-18T19:40:49.024Z,1999.90
2022-08-18T19:43:48.253Z,1999.90
2022-08-18T19:46:45.046Z,1999.90
2022-08-18T19:49:26.280Z,1999.90
2022-08-18T19:52:45.882Z,1999.90
2022-08-18T19:56:21.493Z,1999.90
2022-08-18T19:59:38.843Z,1999.90
2022-08-18T20:02:41.422Z,1999.90
2022-08-18T20:05:29.811Z,1999.90
2022-08-18T20:09:06.526Z,1999.90
2022-08-18T20:12:16.842Z,1999.90
2022-08-18T20:48:54.264Z,1999.90
2022-08-18T21:00:04.009Z,871.47
2022-08-18T21:03:48.936Z,878.45
2022-08-18T21:10:20.738Z,855.17
2022-08-18T21:16:45.253Z,939.05
2022-08-18T21:19:51.182Z,992.08
2022-08-18T21:22:26.287Z,1045.60
2022-08-18T21:24:58.274Z,1116.80
2022-08-18T21:27:38.972Z,1065.10
2022-08-18T21:30:20.334Z,1121.20
2022-08-18T21:32:49.916Z,1085.93
2022-08-18T21:35:37.640Z,1112.22
2022-08-18T21:38:13.081Z,1126.45
2022-08-18T21:40:48.918Z,971.88
2022-08-18T21:43:43.627Z,941.88
2022-08-18T21:46:29.653Z,1020.38
2022-08-18T21:49:01.502Z,1058.07
2022-08-18T21:51:42.853Z,1091.63
2022-08-18T21:54:10.815Z,1087.97
2022-08-18T21:56:38.130Z,1228.53
2022-08-18T21:59:11.383Z,1292.07
2022-08-18T22:01:51.259Z,1562.80
2022-08-18T22:04:24.173Z,1730.32
2022-08-18T22:06:55.599Z,1639.20
2022-08-18T22:09:45.721Z,1315.80
2022-08-18T22:12:48.512Z,1079.95
2022-08-18T22:15:27.178Z,1081.70
2022-08-18T22:18:06.735Z,1550.20
2022-08-18T22:20:38.642Z,1629.13
2022-08-18T22:23:33.017Z,1636.57
2022-08-18T22:26:19.922Z,1544.05
2022-08-18T22:29:11.603Z,1474.82
2022-08-18T22:31:45.935Z,1441.57
2022-08-18T22:34:34.350Z,1448.07
2022-08-18T22:37:09.279Z,1345.38
2022-08-18T22:40:00.009Z,1352.57
2022-08-18T22:42:32.041Z,1300.95
2022-08-18T22:45:08.774Z,1217.20
2022-08-18T22:47:42.880Z,1222.78
2022-08-18T22:50:13.012Z,1176.55
2022-08-18T22:52:43.931Z,1098.03
2022-08-18T22:55:13.565Z,1124.57
2022-08-18T22:57:42.860Z,998.47
2022-08-18T23:00:21.014Z,1536.85
2022-08-18T23:02:50.218Z,1371.68
2022-08-18T23:05:17.578Z,1098.82
2022-08-18T23:07:46.167Z,995.67
2022-08-18T23:10:16.429Z,815.13
2022-08-18T23:12:44.913Z,702.97
2022-08-18T23:15:12.723Z,661.53
2022-08-18T23:17:41.755Z,573.15
2022-08-18T23:20:17.477Z,427.83
2022-08-18T23:22:45.783Z,419.08
2022-08-18T23:25:13.750Z,409.02
2022-08-18T23:27:41.967Z,404.25
2022-08-18T23:30:09.565Z,285.60
2022-08-18T23:32:36.887Z,259.58
2022-08-18T23:35:04.910Z,260.95
2022-08-18T23:37:32.166Z,327.63
2022-08-18T23:39:59.495Z,339.70
2022-08-18T23:42:26.807Z,268.00
2022-08-18T23:44:54.425Z,308.98
2022-08-18T23:47:21.594Z,288.05
2022-08-18T23:49:48.764Z,278.23
2022-08-18T23:52:18.291Z,253.98
2022-08-18T23:54:45.515Z,716.53
2022-08-18T23:57:12.751Z,599.30
2022-08-18T23:59:39.958Z,523.45
